Taunsa Weather



Taunsa's Current Weather

Temprature 20.124o clear sky

clear sky

Rain: 0 %

Min Temprature20.124o
Max Temprature20.124o
Humidity66
Wind Speed3.66 m/h
Sun Rise06:50:25
Sun Set18:11:29
Current Time: 23-Feb-2019 16:01:54
Lat/Lon: 30.7, 70.65




Taunsa's Geo Location




Taunsa's Weather Forecast

Time Overall Temp Min Temp Max Temp Humidity Wind Speed Rain
23-Feb-2019 (Sat)
17:00:00 clear sky 19.810 19.810 20.124 66 3.66 m/h 0 %
20:00:00 clear sky 15.170 15.170 15.409 68 2.82 m/h 0 %
23:00:00 clear sky 12.030 12.030 12.190 79 1.97 m/h 0 %
24-Feb-2019 (Sun)
02:00:00 clear sky 10.130 10.130 10.210 91 0.86 m/h 0 %
05:00:00 clear sky 9.367 9.367 9.367 91 2.16 m/h 0 %
08:00:00 clear sky 11.053 11.053 11.053 87 3.31 m/h 0 %
11:00:00 clear sky 17.849 17.849 17.849 87 2.86 m/h 0 %
14:00:00 clear sky 20.106 20.106 20.106 84 2.12 m/h 0 %
17:00:00 few clouds 19.896 19.896 19.896 71 2.05 m/h 0 %
20:00:00 few clouds 15.218 15.218 15.218 81 1.31 m/h 0 %
23:00:00 clear sky 12.686 12.686 12.686 89 1.46 m/h 0 %
25-Feb-2019 (Mon)
02:00:00 few clouds 11.030 11.030 11.030 95 6.17 m/h 0 %
05:00:00 light rain 10.677 10.677 10.677 94 4.21 m/h 14 %
08:00:00 light rain 11.020 11.020 11.020 91 4.47 m/h 5 %
11:00:00 light rain 14.497 14.497 14.497 90 4.56 m/h 5 %
14:00:00 light rain 16.673 16.673 16.673 89 3.22 m/h 1 %
17:00:00 clear sky 17.037 17.037 17.037 76 2.41 m/h 0 %
20:00:00 scattered clouds 13.373 13.373 13.373 83 2.56 m/h 0 %
23:00:00 broken clouds 12.217 12.217 12.217 90 3.01 m/h 0 %
26-Feb-2019 (Tue)
02:00:00 broken clouds 10.726 10.726 10.726 92 2.71 m/h 0 %
05:00:00 light rain 10.697 10.697 10.697 88 3.66 m/h 6 %
08:00:00 light rain 10.882 10.882 10.882 88 3.87 m/h 3 %
11:00:00 light rain 13.567 13.567 13.567 93 3.67 m/h 1 %
14:00:00 clear sky 15.771 15.771 15.771 87 3.91 m/h 0 %
17:00:00 clear sky 15.939 15.939 15.939 75 2.96 m/h 0 %
20:00:00 scattered clouds 12.411 12.411 12.411 73 1.32 m/h 0 %
23:00:00 clear sky 10.223 10.223 10.223 85 1.92 m/h 0 %
27-Feb-2019 (Wed)
02:00:00 clear sky 8.481 8.481 8.481 95 1.26 m/h 0 %
05:00:00 clear sky 7.444 7.444 7.444 95 1.25 m/h 0 %
08:00:00 clear sky 8.540 8.540 8.540 94 1.17 m/h 0 %
11:00:00 clear sky 15.520 15.520 15.520 93 1.66 m/h 0 %
14:00:00 clear sky 18.261 18.261 18.261 83 2.25 m/h 0 %
17:00:00 clear sky 17.973 17.973 17.973 64 2.16 m/h 0 %
20:00:00 broken clouds 13.367 13.367 13.367 69 2.17 m/h 0 %
23:00:00 broken clouds 11.591 11.591 11.591 82 1.52 m/h 0 %
28-Feb-2019 (Thu)
02:00:00 broken clouds 11.241 11.241 11.241 89 2.66 m/h 0 %
05:00:00 overcast clouds 11.313 11.313 11.313 89 2.41 m/h 0 %
08:00:00 light rain 11.815 11.815 11.815 87 3.11 m/h 9 %
11:00:00 light rain 12.747 12.747 12.747 95 4.36 m/h 57 %
14:00:00 light rain 13.279 13.279 13.279 96 3.47 m/h 42 %

Famous Cities (60)